UUEEUDYZ

Guest
Details From UUEE - Moscou Sheremetyevo
To UDYZ - Zvartnots
Flight Number -
Tags Generated
Created
Modified
Stats Distance 990 nm / 1,833 km
Max Altitude 0 ft / 0 m
Waypoints 5
Social Downloads 0
Likes 0
Share VATSIM

Download

Looking for another format? Having issues loading an existing format? Contact us
Advertisement - Login to hide

Notes

Generated

Route

UUEE USMAN MD ZVR45 UDYZ

ID Type Via Altitude Latitude Longitude Leg Dist Tot Dist Heading (true) Name
O UUEE APT - 0 ft / 0 m 55.96979˚ 37.38673˚ - 0 nm - -
USMAN FIX - 0 ft / 0 m 52.03333˚ 39.73333˚ 250 nm 250 nm 160° / 162° -
MD NDB - 0 ft / 0 m 44.25833˚ 43.00833˚ 484 nm 735 nm 163° / 166° MINERALNYYE VODY NDB
ZVR45 FIX - 0 ft / 0 m 40.23667˚ 44.34667˚ 248 nm 984 nm 166° / 167° -
O UDYZ APT - 0 ft / 0 m 40.14715˚ 44.37329˚ 5 nm 989 nm 167° / 167° -

Altitude Profile

Advertisement - Login to hide

Weather


0- 5 10 15 20 25 30 35+ Temperature / ° C

Clouds and Precipitation
Forecast for 2017-12-14 06:00 UTC. Updated 44 minutes ago

Ground ~20,000 ft ~40,000 ft Winds

UUEE

Details ICAO UUEE (SVO)
Name Moscou Sheremetyevo
Region Russia
Timezone Europe/Moscow (UTC+3.0)
Stats Elevation 622 ft / 190 m (AMSL)
Location 55.972642° 37.414586°
Runways 2
Magnetic Variation 11.165° E

METAR

UUEE 140200Z 00000MPS 3600 1100SW BR OVC036 M00/M00 Q1012 R24L/290151 TEMPO 0500 FZFG

Decode

TAF

TAF AMD TAF AMD UUEE 140119Z 1401/1424 VRB01MPS 6000 BKN011 TX01/1411Z TNM00/1403Z TEMPO 1401/1406 0300 FZFG BKN002 BECMG 1404/1406 09003MPS TEMPO 1406/1418 2100 -SN BR OVC004 PROB40 TEMPO 1406/1415 -FZDZ

Decode

Departure Runways

ID Width Length Bearing (true) Bearing (mag) Surface Threshold Offset Overrun Length
07L 197 ft / 60 m 11,613 ft / 3,540 m 74.99° 63.82° Concrete 0 ft / 0 m 240 ft / 73 m
07R 197 ft / 60 m 12,127 ft / 3,696 m 75.03° 63.86° Concrete 0 ft / 0 m 235 ft / 72 m
25L 197 ft / 60 m 12,127 ft / 3,696 m 255.08° 243.91° Concrete 0 ft / 0 m 245 ft / 75 m
25R 197 ft / 60 m 11,613 ft / 3,540 m 255.04° 243.87° Concrete 0 ft / 0 m 245 ft / 75 m

UDYZ

Details ICAO UDYZ (EVN)
Name ZVARTNOTS
Region Armenia
Timezone Asia/Yerevan (UTC+4.0)
Stats Elevation 2,838 ft / 865 m (AMSL)
Location 40.147271° 44.395880°
Runways 1
Magnetic Variation 6.201° E

METAR

UDYZ 140200Z 03002KT 3500 BR NSC M06/M07 Q1023 R09/000070 NOSIG

Decode

TAF

Not found

Destination Runways

ID Width Length Bearing (true) Bearing (mag) Surface Threshold Offset Overrun Length
09 184 ft / 56 m 12,601 ft / 3,841 m 89.59° 83.39° Asphalt 0 ft / 0 m 0 ft / 0 m
27 184 ft / 56 m 12,601 ft / 3,841 m 269.62° 263.42° Asphalt 0 ft / 0 m 0 ft / 0 m

Approach Navaids

Runway Type Ident Frequency Range Bearing (true) Bearing (mag) Slope Elevation
09 Localiser IZR 108.10 MHz 18 nm / 33 km 89.83° 83.63° - 2,838 ft / 865 m (AMSL)
09 Glidescope IZR 108.10 MHz 10 nm / 19 km 89.61° 83.41° 2.67° 2,838 ft / 865 m (AMSL)

Popular Alternatives